createdAt,value
2022-08-18T00:01:14.564Z,35.58
2022-08-18T00:03:54.029Z,34.65
2022-08-18T00:06:28.526Z,35.55
2022-08-18T00:08:56.520Z,33.45
2022-08-18T00:11:40.585Z,36.17
2022-08-18T00:14:21.562Z,29.33
2022-08-18T00:16:52.457Z,35.72
2022-08-18T00:19:19.116Z,35.22
2022-08-18T00:21:45.638Z,32.58
2022-08-18T00:24:12.157Z,36.25
2022-08-18T00:26:38.755Z,29.52
2022-08-18T00:29:05.620Z,29.95
2022-08-18T00:31:32.680Z,18.75
2022-08-18T00:34:00.266Z,27.80
2022-08-18T00:36:27.701Z,22.30
2022-08-18T00:38:54.259Z,25.08
2022-08-18T00:41:21.170Z,28.75
2022-08-18T00:43:51.181Z,23.58
2022-08-18T00:46:23.758Z,24.48
2022-08-18T00:48:50.992Z,31.35
2022-08-18T00:51:27.637Z,26.25
2022-08-18T00:54:08.946Z,26.40
2022-08-18T00:56:50.622Z,31.08
2022-08-18T01:02:02.579Z,28.80
2022-08-18T01:04:42.414Z,32.13
2022-08-18T01:07:15.688Z,19.17
2022-08-18T01:09:42.245Z,31.35
2022-08-18T01:12:29.801Z,29.65
2022-08-18T01:14:56.454Z,32.33
2022-08-18T01:18:34.659Z,27.55
2022-08-18T01:21:20.033Z,33.65
2022-08-18T01:23:48.289Z,22.63
2022-08-18T01:26:16.976Z,23.35
2022-08-18T01:28:46.270Z,31.70
2022-08-18T01:31:29.268Z,46.03
2022-08-18T01:33:57.197Z,26.05
2022-08-18T01:36:25.648Z,49.38
2022-08-18T01:38:53.480Z,45.17
2022-08-18T01:41:29.696Z,42.13
2022-08-18T01:44:00.992Z,52.42
2022-08-18T01:46:30.704Z,22.10
2022-08-18T01:49:01.149Z,23.02
2022-08-18T01:51:38.818Z,24.92
2022-08-18T01:54:09.785Z,23.63
2022-08-18T01:56:49.366Z,21.98
2022-08-18T01:59:16.051Z,28.67
2022-08-18T02:01:53.085Z,25.58
2022-08-18T02:04:34.847Z,21.20
2022-08-18T02:07:05.380Z,25.40
2022-08-18T02:09:33.639Z,28.50
2022-08-18T02:12:01.126Z,26.83
2022-08-18T02:14:27.810Z,26.85
2022-08-18T02:17:02.290Z,33.38
2022-08-18T02:19:35.226Z,37.78
2022-08-18T02:22:02.691Z,27.80
2022-08-18T02:24:29.428Z,25.42
2022-08-18T02:26:56.166Z,29.80
2022-08-18T02:29:22.853Z,21.40
2022-08-18T02:31:49.466Z,27.10
2022-08-18T02:34:17.399Z,27.23
2022-08-18T02:36:44.392Z,30.45
2022-08-18T02:39:11.666Z,46.30
2022-08-18T02:41:38.212Z,24.63
2022-08-18T02:44:09.447Z,43.80
2022-08-18T02:46:37.040Z,35.75
2022-08-18T02:49:05.245Z,38.03
2022-08-18T02:51:31.954Z,62.08
2022-08-18T02:53:59.578Z,32.80
2022-08-18T02:56:39.995Z,57.08
2022-08-18T02:59:12.365Z,39.22
2022-08-18T03:01:50.197Z,29.40
2022-08-18T03:04:28.133Z,48.33
2022-08-18T03:06:57.578Z,60.75
2022-08-18T03:30:25.631Z,36.80
2022-08-18T03:32:52.240Z,34.42
2022-08-18T03:35:18.754Z,36.53
2022-08-18T03:37:45.381Z,34.10
2022-08-18T03:40:12.163Z,39.15
2022-08-18T03:42:39.023Z,34.00
2022-08-18T03:45:17.388Z,34.22
2022-08-18T03:47:45.830Z,41.72
2022-08-18T03:50:14.121Z,36.53
2022-08-18T03:52:41.419Z,29.33
2022-08-18T03:55:09.117Z,45.28
2022-08-18T03:57:39.078Z,24.48
2022-08-18T04:00:06.983Z,38.03
2022-08-18T04:02:33.492Z,27.90
2022-08-18T04:05:00.249Z,32.55
2022-08-18T04:07:26.879Z,38.58
2022-08-18T04:09:53.397Z,56.50
2022-08-18T04:12:19.954Z,42.83
2022-08-18T04:14:49.609Z,48.08
2022-08-18T04:17:24.832Z,44.95
2022-08-18T04:19:53.432Z,37.17
2022-08-18T04:22:20.755Z,26.20
2022-08-18T04:24:48.095Z,40.90
2022-08-18T04:27:17.605Z,28.65
2022-08-18T04:29:44.140Z,21.67
2022-08-18T04:32:10.726Z,48.08
2022-08-18T04:34:37.301Z,32.88
2022-08-18T04:37:04.020Z,23.55
2022-08-18T04:39:30.850Z,21.30
2022-08-18T04:41:59.193Z,23.80
2022-08-18T04:44:25.712Z,27.90
2022-08-18T04:46:54.475Z,20.52
2022-08-18T04:49:26.149Z,18.13
2022-08-18T04:52:37.140Z,19.20
2022-08-18T04:55:01.480Z,19.88
2022-08-18T04:57:29.095Z,17.58
2022-08-18T05:00:00.945Z,22.25
2022-08-18T05:02:27.824Z,18.55
2022-08-18T05:04:54.414Z,21.30
2022-08-18T05:07:22.949Z,25.52
2022-08-18T05:09:50.802Z,19.88
2022-08-18T05:12:17.607Z,28.75
2022-08-18T05:14:47.569Z,20.27
2022-08-18T05:17:16.221Z,23.35
2022-08-18T05:19:44.644Z,18.75
2022-08-18T05:22:17.749Z,16.63
2022-08-18T05:24:45.629Z,25.40
2022-08-18T05:27:13.045Z,24.70
2022-08-18T05:29:42.009Z,18.48
2022-08-18T05:32:38.238Z,24.70
2022-08-18T05:35:12.204Z,25.48
2022-08-18T05:38:23.062Z,27.95
2022-08-18T05:41:14.412Z,28.48
2022-08-18T05:43:51.857Z,17.50
2022-08-18T05:46:22.085Z,9.00
2022-08-18T05:48:48.751Z,17.15
2022-08-18T05:51:44.302Z,30.10
2022-08-18T05:54:30.809Z,29.13
2022-08-18T05:57:02.514Z,28.42
2022-08-18T05:59:34.174Z,31.05
2022-08-18T06:02:07.716Z,29.13
2022-08-18T06:04:47.270Z,29.27
2022-08-18T06:07:18.337Z,24.02
2022-08-18T06:09:51.407Z,24.92
2022-08-18T06:12:37.677Z,27.25
2022-08-18T06:15:29.265Z,24.13
2022-08-18T06:18:21.879Z,25.83
2022-08-18T06:21:10.169Z,23.58
2022-08-18T06:24:30.854Z,26.42
2022-08-18T06:27:24.313Z,18.33
2022-08-18T06:30:10.793Z,30.60
2022-08-18T06:33:09.945Z,23.08
2022-08-18T06:35:45.646Z,24.92
2022-08-18T06:38:36.279Z,23.27
2022-08-18T06:41:42.464Z,21.25
2022-08-18T06:44:13.827Z,22.02
2022-08-18T06:46:46.149Z,23.42
2022-08-18T06:49:34.597Z,21.23
2022-08-18T06:52:33.513Z,25.00
2022-08-18T06:55:11.364Z,19.38
2022-08-18T06:57:52.297Z,31.98
2022-08-18T07:00:18.982Z,23.00
2022-08-18T07:02:54.922Z,31.67
2022-08-18T07:05:30.168Z,25.95
2022-08-18T07:08:18.447Z,19.35
2022-08-18T07:10:51.691Z,19.00
2022-08-18T07:13:26.345Z,25.05
2022-08-18T07:16:40.330Z,29.75
2022-08-18T07:19:22.498Z,29.10
2022-08-18T07:22:21.459Z,46.78
2022-08-18T07:25:05.181Z,50.85
2022-08-18T07:27:49.213Z,38.83
2022-08-18T07:30:21.659Z,19.70
2022-08-18T07:32:54.629Z,27.23
2022-08-18T07:35:27.978Z,46.22
2022-08-18T07:38:38.721Z,65.68
2022-08-18T07:44:35.441Z,42.70
2022-08-18T07:47:08.033Z,56.83
2022-08-18T07:49:37.194Z,39.83
2022-08-18T07:52:21.606Z,70.82
2022-08-18T07:54:58.548Z,70.50
2022-08-18T07:57:42.907Z,34.72
2022-08-18T08:00:54.828Z,32.35
2022-08-18T08:03:38.045Z,17.85
2022-08-18T08:06:25.687Z,14.38
2022-08-18T08:09:06.881Z,22.23
2022-08-18T08:11:39.276Z,34.03
2022-08-18T08:14:32.115Z,30.17
2022-08-18T08:17:37.365Z,47.45
2022-08-18T08:20:08.641Z,64.43
2022-08-18T08:23:01.309Z,48.55
2022-08-18T08:25:47.866Z,37.88
2022-08-18T08:28:58.465Z,57.80
2022-08-18T08:31:38.208Z,53.85
2022-08-18T08:34:27.124Z,43.80
2022-08-18T08:37:09.271Z,39.13
2022-08-18T08:39:59.861Z,32.95
2022-08-18T08:42:40.561Z,30.33
2022-08-18T08:45:13.533Z,30.90
2022-08-18T08:47:43.144Z,27.15
2022-08-18T08:50:18.222Z,23.27
2022-08-18T08:52:58.868Z,32.53
2022-08-18T08:55:29.343Z,33.45
2022-08-18T08:58:23.429Z,23.05
2022-08-18T09:00:52.720Z,44.15
2022-08-18T09:03:49.068Z,25.08
2022-08-18T09:06:39.616Z,20.92
2022-08-18T09:09:16.076Z,21.05
2022-08-18T09:11:51.779Z,19.35
2022-08-18T09:14:42.250Z,23.55
2022-08-18T09:17:34.500Z,19.20
2022-08-18T09:20:31.098Z,21.42
2022-08-18T09:23:12.085Z,20.05
2022-08-18T09:25:39.134Z,17.13
2022-08-18T09:28:39.713Z,20.63
2022-08-18T09:31:08.592Z,20.77
2022-08-18T09:33:44.994Z,18.38
2022-08-18T09:36:36.940Z,12.73
2022-08-18T09:39:25.131Z,15.18
2022-08-18T09:41:56.973Z,16.45
2022-08-18T09:47:10.126Z,10.43
2022-08-18T09:49:41.636Z,11.35
2022-08-18T09:52:26.185Z,8.30
2022-08-18T09:54:58.655Z,10.98
2022-08-18T09:57:28.236Z,10.23
2022-08-18T09:59:57.583Z,13.27
2022-08-18T10:02:28.441Z,7.63
2022-08-18T10:05:14.032Z,12.38
2022-08-18T10:07:46.526Z,9.32
2022-08-18T10:11:01.756Z,8.43
2022-08-18T10:13:37.533Z,9.32
2022-08-18T10:16:38.238Z,10.65
2022-08-18T10:19:39.258Z,10.30
2022-08-18T10:22:09.303Z,12.88
2022-08-18T10:24:54.944Z,9.20
2022-08-18T10:27:46.372Z,6.88
2022-08-18T10:30:34.462Z,9.73
2022-08-18T10:33:17.194Z,10.02
2022-08-18T10:35:59.245Z,10.70
2022-08-18T10:38:36.918Z,8.52
2022-08-18T10:41:15.790Z,8.40
2022-08-18T10:43:55.695Z,10.85
2022-08-18T10:46:33.120Z,7.05
2022-08-18T10:49:21.381Z,9.38
2022-08-18T10:52:00.070Z,10.50
2022-08-18T10:54:54.777Z,8.45
2022-08-18T10:58:09.001Z,10.43
2022-08-18T11:00:41.401Z,11.00
2022-08-18T11:03:51.496Z,9.07
2022-08-18T11:09:06.511Z,8.27
2022-08-18T11:11:43.040Z,9.20
2022-08-18T11:14:51.042Z,10.45
2022-08-18T11:17:22.836Z,12.95
2022-08-18T11:19:52.578Z,7.70
2022-08-18T11:22:31.543Z,8.82
2022-08-18T11:25:00.869Z,10.80
2022-08-18T11:27:30.108Z,10.68
2022-08-18T11:30:01.307Z,10.10
2022-08-18T11:35:18.995Z,9.43
2022-08-18T11:37:53.383Z,9.43
2022-08-18T11:41:02.174Z,9.15
2022-08-18T11:43:10.319Z,9.23
2022-08-18T11:45:44.248Z,7.63
2022-08-18T11:48:46.390Z,12.25
2022-08-18T11:51:23.659Z,7.93
2022-08-18T11:53:58.360Z,7.95
2022-08-18T11:56:36.091Z,10.38
2022-08-18T11:59:53.030Z,10.45
2022-08-18T12:02:21.245Z,10.95
2022-08-18T12:05:03.473Z,9.55
2022-08-18T12:07:42.146Z,9.02
2022-08-18T12:10:28.689Z,11.88
2022-08-18T12:12:59.810Z,9.32
2022-08-18T12:15:46.428Z,10.13
2022-08-18T12:18:26.210Z,10.15
2022-08-18T12:21:01.648Z,9.88
2022-08-18T12:23:38.950Z,11.10
2022-08-18T12:26:26.887Z,17.52
2022-08-18T12:29:03.045Z,16.05
2022-08-18T12:31:47.552Z,15.43
2022-08-18T12:34:16.634Z,13.93
2022-08-18T12:36:44.773Z,10.75
2022-08-18T12:39:13.522Z,11.27
2022-08-18T12:41:40.732Z,12.00
2022-08-18T12:44:13.166Z,11.35
2022-08-18T12:46:42.803Z,10.30
2022-08-18T12:49:24.616Z,17.48
2022-08-18T12:51:54.479Z,8.60
2022-08-18T12:54:22.258Z,15.98
2022-08-18T12:56:54.214Z,13.40
2022-08-18T12:59:20.828Z,12.60
2022-08-18T13:01:51.404Z,15.93
2022-08-18T13:04:27.003Z,16.80
2022-08-18T13:06:59.919Z,14.90
2022-08-18T13:09:35.088Z,17.15
2022-08-18T13:12:18.418Z,10.73
2022-08-18T13:14:46.895Z,15.60
2022-08-18T13:17:32.639Z,14.13
2022-08-18T13:20:06.793Z,11.77
2022-08-18T13:22:34.582Z,8.88
2022-08-18T13:25:03.600Z,12.02
2022-08-18T13:27:33.825Z,13.07
2022-08-18T13:30:29.872Z,10.45
2022-08-18T13:33:00.251Z,14.55
2022-08-18T13:35:35.541Z,13.52
2022-08-18T13:38:14.123Z,12.32
2022-08-18T13:40:46.952Z,12.27
2022-08-18T13:43:16.066Z,14.80
2022-08-18T13:45:46.829Z,13.80
2022-08-18T13:48:19.333Z,15.88
2022-08-18T13:50:46.347Z,13.18
2022-08-18T13:53:19.483Z,14.18
2022-08-18T13:55:46.859Z,15.52
2022-08-18T13:58:20.261Z,11.15
2022-08-18T14:00:52.278Z,16.35
2022-08-18T14:03:42.955Z,13.48
2022-08-18T14:06:13.227Z,14.05
2022-08-18T14:08:40.592Z,13.70
2022-08-18T14:11:08.857Z,14.05
2022-08-18T14:13:38.304Z,14.45
2022-08-18T14:16:16.198Z,11.10
2022-08-18T14:19:09.743Z,12.05
2022-08-18T14:21:59.278Z,10.20
2022-08-18T14:24:44.189Z,11.02
2022-08-18T14:27:16.386Z,8.93
2022-08-18T14:29:46.981Z,7.45
2022-08-18T14:32:28.663Z,7.55
2022-08-18T14:35:00.864Z,8.25
2022-08-18T14:37:45.718Z,7.68
2022-08-18T14:40:12.862Z,7.95
2022-08-18T14:42:54.044Z,7.30
2022-08-18T14:45:34.016Z,8.43
2022-08-18T14:48:02.082Z,7.80
2022-08-18T14:50:31.131Z,7.93
2022-08-18T14:52:57.813Z,7.55
2022-08-18T14:55:26.806Z,11.93
2022-08-18T14:57:53.734Z,6.78
2022-08-18T15:00:22.696Z,6.70
2022-08-18T15:02:49.865Z,7.57
2022-08-18T15:05:19.907Z,6.45
2022-08-18T15:07:52.342Z,7.75
2022-08-18T15:10:23.587Z,7.00
2022-08-18T15:12:54.998Z,6.18
2022-08-18T15:15:22.513Z,6.68
2022-08-18T15:17:52.528Z,6.57
2022-08-18T15:20:28.886Z,5.70
2022-08-18T15:23:17.278Z,6.13
2022-08-18T15:25:46.326Z,6.30
2022-08-18T15:28:25.330Z,8.85
2022-08-18T15:31:16.478Z,8.57
2022-08-18T15:33:39.383Z,7.63
2022-08-18T15:36:09.765Z,6.93
2022-08-18T15:38:36.889Z,7.07
2022-08-18T15:41:06.243Z,6.57
2022-08-18T15:43:46.100Z,8.73
2022-08-18T15:46:13.976Z,6.68
2022-08-18T15:48:43.468Z,6.70
2022-08-18T15:51:12.094Z,6.75
2022-08-18T15:53:45.010Z,6.80
2022-08-18T15:56:25.987Z,6.93
2022-08-18T15:58:52.959Z,5.47
2022-08-18T16:01:32.120Z,5.30
2022-08-18T16:04:01.053Z,5.68
2022-08-18T16:06:32.515Z,8.13
2022-08-18T16:09:00.428Z,7.32
2022-08-18T16:11:29.373Z,5.60
2022-08-18T16:13:58.811Z,5.25
2022-08-18T16:16:29.000Z,6.10
2022-08-18T16:19:04.631Z,5.97
2022-08-18T16:21:31.157Z,7.22
2022-08-18T16:23:58.271Z,6.00
2022-08-18T16:26:24.933Z,5.13
2022-08-18T16:28:52.977Z,7.25
2022-08-18T16:31:28.177Z,5.20
2022-08-18T16:33:56.461Z,5.82
2022-08-18T16:36:26.803Z,5.20
2022-08-18T16:38:56.011Z,5.97
2022-08-18T16:41:25.892Z,4.57
2022-08-18T16:43:52.642Z,4.38
2022-08-18T16:46:25.907Z,4.72
2022-08-18T16:48:54.574Z,9.10
2022-08-18T16:51:23.368Z,6.15
2022-08-18T16:53:52.111Z,4.88
2022-08-18T16:56:22.034Z,7.35
2022-08-18T16:59:08.052Z,6.03
2022-08-18T17:01:53.234Z,4.70
2022-08-18T17:04:22.684Z,5.32
2022-08-18T17:06:50.619Z,5.18
2022-08-18T17:09:19.109Z,8.57
2022-08-18T17:11:48.163Z,6.05
2022-08-18T17:14:24.480Z,7.43
2022-08-18T17:16:54.269Z,4.72
2022-08-18T17:19:23.981Z,6.18
2022-08-18T17:21:50.868Z,5.70
2022-08-18T17:24:19.813Z,5.35
2022-08-18T17:27:25.635Z,4.95
2022-08-18T17:29:53.295Z,5.03
2022-08-18T17:32:26.071Z,6.43
2022-08-18T17:35:04.056Z,6.82
2022-08-18T17:37:30.860Z,5.03
2022-08-18T17:40:05.112Z,5.18
2022-08-18T17:42:33.417Z,6.82
2022-08-18T17:45:05.879Z,5.65
2022-08-18T17:47:38.210Z,5.18
2022-08-18T17:50:28.779Z,6.15
2022-08-18T17:53:05.398Z,4.97
2022-08-18T17:55:50.426Z,7.63
2022-08-18T17:58:59.722Z,7.50
2022-08-18T18:01:27.143Z,5.00
2022-08-18T18:03:53.840Z,5.50
2022-08-18T18:06:38.457Z,6.53
2022-08-18T18:09:27.757Z,6.43
2022-08-18T18:11:54.499Z,4.88
2022-08-18T18:14:29.918Z,6.75
2022-08-18T18:17:14.372Z,5.43
2022-08-18T18:19:43.058Z,9.57
2022-08-18T18:22:21.065Z,5.72
2022-08-18T18:25:07.538Z,6.55
2022-08-18T18:27:39.931Z,5.25
2022-08-18T18:30:27.633Z,5.43
2022-08-18T18:32:59.951Z,5.75
2022-08-18T18:35:31.250Z,7.53
2022-08-18T18:38:05.995Z,6.00
2022-08-18T18:40:39.193Z,7.75
2022-08-18T18:43:27.024Z,5.40
2022-08-18T18:46:05.742Z,5.78
2022-08-18T18:48:52.092Z,5.05
2022-08-18T18:51:50.451Z,5.70
2022-08-18T18:54:35.031Z,4.82
2022-08-18T18:57:07.828Z,5.93
2022-08-18T19:00:02.388Z,4.45
2022-08-18T19:02:36.304Z,6.38
2022-08-18T19:05:21.508Z,4.75
2022-08-18T19:07:56.950Z,4.32
2022-08-18T19:10:34.716Z,4.65
2022-08-18T19:13:32.448Z,6.13
2022-08-18T19:16:30.457Z,4.32
2022-08-18T19:19:37.576Z,5.13
2022-08-18T19:22:04.050Z,4.38
2022-08-18T19:24:38.655Z,5.40
2022-08-18T19:27:10.542Z,4.47
2022-08-18T19:29:43.594Z,6.35
2022-08-18T19:32:18.801Z,4.65
2022-08-18T19:34:52.892Z,5.07
2022-08-18T19:37:34.644Z,4.68
2022-08-18T19:40:18.779Z,4.45
2022-08-18T19:43:03.272Z,4.60
2022-08-18T19:45:33.202Z,4.53
2022-08-18T19:48:32.069Z,4.70
2022-08-18T19:51:34.035Z,6.20
2022-08-18T19:54:12.664Z,4.28
2022-08-18T19:56:50.701Z,6.10
2022-08-18T19:59:37.449Z,4.07
2022-08-18T20:02:22.460Z,4.28
2022-08-18T20:05:00.071Z,6.18
2022-08-18T20:08:02.902Z,5.20
2022-08-18T20:10:50.507Z,6.93
2022-08-18T20:13:32.373Z,4.82
2022-08-18T20:16:43.854Z,5.00
2022-08-18T20:19:40.675Z,4.78
2022-08-18T20:22:26.683Z,4.97
2022-08-18T20:25:08.208Z,5.50
2022-08-18T20:27:43.278Z,5.13
2022-08-18T20:30:48.179Z,4.32
2022-08-18T20:33:24.041Z,5.18
2022-08-18T20:36:14.241Z,4.88
2022-08-18T20:38:50.688Z,6.30
2022-08-18T20:41:29.940Z,5.07
2022-08-18T20:44:38.149Z,4.53
2022-08-18T20:47:29.441Z,4.93
2022-08-18T20:49:58.979Z,5.47
2022-08-18T20:52:39.460Z,7.05
2022-08-18T20:55:42.776Z,5.55
2022-08-18T20:58:15.585Z,4.88
2022-08-18T21:00:47.594Z,6.30
2022-08-18T21:03:16.680Z,5.85
2022-08-18T21:05:45.494Z,5.20
2022-08-18T21:08:16.275Z,10.48
2022-08-18T21:10:56.034Z,4.97
2022-08-18T21:13:51.458Z,6.72
2022-08-18T21:16:34.216Z,5.60
2022-08-18T21:19:20.646Z,4.75
2022-08-18T21:21:51.673Z,6.00
2022-08-18T21:24:20.740Z,4.80
2022-08-18T21:26:48.200Z,6.32
2022-08-18T21:29:15.664Z,5.38
2022-08-18T21:31:45.444Z,5.63
2022-08-18T21:34:13.707Z,6.05
2022-08-18T21:36:53.559Z,6.47
2022-08-18T21:39:23.527Z,5.90
2022-08-18T21:41:57.076Z,5.50
2022-08-18T21:44:38.960Z,6.57
2022-08-18T21:47:42.263Z,5.70
2022-08-18T21:50:17.465Z,5.25
2022-08-18T21:52:54.810Z,6.53
2022-08-18T21:55:42.277Z,5.43
2022-08-18T21:58:18.045Z,5.00
2022-08-18T22:00:45.760Z,5.03
2022-08-18T22:03:23.139Z,5.82
2022-08-18T22:06:13.768Z,6.40
2022-08-18T22:09:39.325Z,6.57
2022-08-18T22:12:42.387Z,6.65
2022-08-18T22:15:17.690Z,7.13
2022-08-18T22:17:48.319Z,7.65
2022-08-18T22:20:31.914Z,8.70
2022-08-18T22:23:36.291Z,6.18
2022-08-18T22:26:17.113Z,5.68
2022-08-18T22:29:10.306Z,6.38
2022-08-18T22:31:36.879Z,7.22
2022-08-18T22:34:07.667Z,6.75
2022-08-18T22:36:45.195Z,6.07
2022-08-18T22:39:17.081Z,6.85
2022-08-18T22:41:44.681Z,7.85
2022-08-18T22:44:11.223Z,6.82
2022-08-18T22:46:37.830Z,6.03
2022-08-18T22:49:04.869Z,9.85
2022-08-18T22:51:33.268Z,9.85
2022-08-18T22:54:00.028Z,8.13
2022-08-18T22:56:34.495Z,6.93
2022-08-18T22:59:13.358Z,6.22
2022-08-18T23:01:45.779Z,7.68
2022-08-18T23:04:12.632Z,7.85
2022-08-18T23:06:39.175Z,9.32
2022-08-18T23:09:05.721Z,6.60
2022-08-18T23:11:32.328Z,7.30
2022-08-18T23:14:02.468Z,7.15
2022-08-18T23:16:31.182Z,7.22
2022-08-18T23:19:01.836Z,7.32
2022-08-18T23:21:34.133Z,9.38
2022-08-18T23:24:04.929Z,9.57
2022-08-18T23:26:31.577Z,8.07
2022-08-18T23:28:58.108Z,7.68
2022-08-18T23:31:24.634Z,7.60
2022-08-18T23:33:51.388Z,7.50
2022-08-18T23:36:17.983Z,7.05
2022-08-18T23:38:44.769Z,6.80
2022-08-18T23:41:13.647Z,7.50
2022-08-18T23:43:41.826Z,6.68
2022-08-18T23:46:24.032Z,8.90
2022-08-18T23:48:52.117Z,7.15
2022-08-18T23:51:26.861Z,7.00
2022-08-18T23:53:55.389Z,11.05
2022-08-18T23:56:21.947Z,8.23
2022-08-18T23:58:56.361Z,8.45
